Acworth, Georgia
Current Conditions -  °F | °C
As of 6:47 AM on Tuesday 21 Oct 2014 (Local Time) from KRYY Reporting Station
Clear Clear  
Wind Chill: 52°   Ceiling: Unl
Heat Index: 52°   Visibility: 10mi
Dew Point: 46°   Wind: 0mph
Humidity: 82%   Direction: NA
Pressure: 30.04"   Gusts: NA
Location:  34.06°N, 84.68°W
Report Text: KRYY 211047Z 00000KT 10SM SKC 11/08 A3004
Loading
Personal Weather Stations






























Interactive Weather Map
Tropical Storm Tracking
New forecast layout! Learn more

10-Day Weather Forecast

Advertisements
Track Severe Weather on mobile